Time;durP1;ratioP1;P1;durP2;ratioP2;P2;SDS_P1;SDS_P2;PMS_P1;PMS_P2;Temp;Humidity;BMP_temperature;BMP_pressure;BME280_temperature;BME280_humidity;BME280_pressure;Samples;Min_cycle;Max_cycle;Signal;HPM_P1;HPM_P2
2022/01/21 00:01:28;;;;;;;73.65;31.50;;;;;;;;;;5117275;28;20039;-77
2022/01/21 00:03:58;;;;;;;111.78;42.83;;;;;;;;;;5118252;28;20020;-77
2022/01/21 00:06:26;;;;;;;59.20;25.05;;;;;;;;;;5118488;28;20045;-78
2022/01/21 00:08:57;;;;;;;61.25;25.83;;;;;;;;;;5116571;28;20065;-78
2022/01/21 00:11:30;;;;;;;77.82;34.13;;;;;;;;;;5118159;28;20033;-78
2022/01/21 00:13:59;;;;;;;69.78;29.55;;;;;;;;;;5118286;28;20067;-78
2022/01/21 00:16:27;;;;;;;71.40;31.35;;;;;;;;;;5118237;28;20026;-79
2022/01/21 00:19:06;;;;;;;73.65;30.60;;;;;;;;;;5118151;28;20043;-80
2022/01/21 00:32:36;;;;;;;121.13;51.55;;;;;;;;;;5117467;28;20395;-79
2022/01/21 00:35:04;;;;;;;115.50;47.90;;;;;;;;;;5117458;28;20047;-79
2022/01/21 00:37:32;;;;;;;145.00;54.88;;;;;;;;;;5117325;28;20140;-79
2022/01/21 00:40:01;;;;;;;152.05;60.17;;;;;;;;;;5116260;28;20028;-79
2022/01/21 00:45:11;;;;;;;147.38;64.28;;;;;;;;;;5117225;28;20062;-81
2022/01/21 00:47:39;;;;;;;114.00;50.50;;;;;;;;;;5117110;28;20039;-80
2022/01/21 00:50:08;;;;;;;124.88;50.15;;;;;;;;;;5117049;28;20016;-79
2022/01/21 00:52:36;;;;;;;130.02;54.03;;;;;;;;;;5115849;28;20391;-80
2022/01/21 00:55:04;;;;;;;119.05;52.70;;;;;;;;;;5115626;28;20420;-81
2022/01/21 00:57:32;;;;;;;112.28;50.30;;;;;;;;;;5116897;28;20083;-80
2022/01/21 01:00:00;;;;;;;106.78;44.53;;;;;;;;;;5116910;28;20435;-80
2022/01/21 01:02:29;;;;;;;98.75;40.55;;;;;;;;;;5116860;28;20024;-81
2022/01/21 01:04:56;;;;;;;111.90;44.25;;;;;;;;;;5116687;28;20020;-80
2022/01/21 01:07:24;;;;;;;110.68;47.35;;;;;;;;;;5115565;28;20016;-79
2022/01/21 01:09:54;;;;;;;158.23;63.08;;;;;;;;;;5116561;28;20034;-79
2022/01/21 01:20:31;;;;;;;120.65;45.90;;;;;;;;;;5116831;28;20494;-79
2022/01/21 01:23:20;;;;;;;106.93;43.83;;;;;;;;;;5116571;28;20336;-79
2022/01/21 01:28:34;;;;;;;32.33;12.43;;;;;;;;;;5116484;28;20468;-78
2022/01/21 01:31:01;;;;;;;24.65;9.20;;;;;;;;;;5116474;28;20063;-78
2022/01/21 01:33:36;;;;;;;27.33;10.52;;;;;;;;;;5115432;28;20016;-78
2022/01/21 01:36:06;;;;;;;31.67;13.52;;;;;;;;;;5116401;28;20020;-78
2022/01/21 01:41:22;;;;;;;48.22;20.00;;;;;;;;;;5116418;28;20031;-71
2022/01/21 01:51:58;;;;;;;54.38;20.15;;;;;;;;;;5116601;28;20042;-75
2022/01/21 01:54:26;;;;;;;62.10;22.38;;;;;;;;;;5116973;28;20024;-73
2022/01/21 01:56:59;;;;;;;53.53;21.60;;;;;;;;;;5115455;28;20110;-74
2022/01/21 01:59:27;;;;;;;70.65;21.83;;;;;;;;;;5117056;28;20073;-74
2022/01/21 02:02:11;;;;;;;79.30;22.75;;;;;;;;;;5116875;28;20028;-73
2022/01/21 02:04:40;;;;;;;65.80;20.77;;;;;;;;;;5127675;28;20024;-73
2022/01/21 02:07:08;;;;;;;78.93;22.52;;;;;;;;;;5138561;28;20020;-73
2022/01/21 02:09:36;;;;;;;72.30;25.75;;;;;;;;;;5138793;28;20026;-74
2022/01/21 02:12:04;;;;;;;78.90;27.98;;;;;;;;;;5128266;28;20315;-74
2022/01/21 02:14:38;;;;;;;69.10;25.15;;;;;;;;;;5115880;28;20443;-71
2022/01/21 02:17:15;;;;;;;64.10;25.83;;;;;;;;;;5115938;28;20363;-71
2022/01/21 02:22:37;;;;;;;101.20;38.63;;;;;;;;;;5115964;28;20101;-70
2022/01/21 02:25:15;;;;;;;133.90;43.88;;;;;;;;;;5115652;28;20462;-70
2022/01/21 02:27:43;;;;;;;106.28;42.15;;;;;;;;;;5117126;28;20035;-71
2022/01/21 02:30:18;;;;;;;135.80;40.88;;;;;;;;;;5115935;28;20031;-71
2022/01/21 02:32:46;;;;;;;109.35;38.03;;;;;;;;;;5117746;28;20051;-69
2022/01/21 02:35:17;;;;;;;116.78;40.20;;;;;;;;;;5119514;28;20326;-72
2022/01/21 02:37:45;;;;;;;103.68;38.45;;;;;;;;;;5117588;28;20213;-70
2022/01/21 02:40:13;;;;;;;127.70;39.10;;;;;;;;;;5116370;28;20031;-74
2022/01/21 02:42:41;;;;;;;117.47;40.67;;;;;;;;;;5119420;28;20047;-71
2022/01/21 02:45:09;;;;;;;131.70;45.22;;;;;;;;;;5105202;28;20097;-74
2022/01/21 02:47:37;;;;;;;215.25;84.82;;;;;;;;;;5098501;28;20382;-72
2022/01/21 02:50:05;;;;;;;234.38;86.40;;;;;;;;;;5098701;28;20027;-72
2022/01/21 02:52:41;;;;;;;228.77;86.82;;;;;;;;;;5098736;28;20020;-76
2022/01/21 02:55:12;;;;;;;247.25;91.88;;;;;;;;;;5098760;28;20024;-73
2022/01/21 02:57:40;;;;;;;239.15;93.03;;;;;;;;;;5126112;27;20030;-77
2022/01/21 03:00:08;;;;;;;229.52;92.22;;;;;;;;;;5120408;27;20027;-71
2022/01/21 03:02:35;;;;;;;260.05;106.72;;;;;;;;;;5124041;27;20023;-74
2022/01/21 03:05:09;;;;;;;252.40;107.15;;;;;;;;;;5138106;27;20031;-71
2022/01/21 03:07:37;;;;;;;272.73;110.28;;;;;;;;;;5139214;27;20023;-72
2022/01/21 03:10:04;;;;;;;238.07;98.18;;;;;;;;;;5139202;27;20015;-73
2022/01/21 03:12:32;;;;;;;278.58;111.25;;;;;;;;;;5139188;27;20032;-76
2022/01/21 03:14:59;;;;;;;308.00;122.18;;;;;;;;;;5131784;27;20063;-68
2022/01/21 03:17:27;;;;;;;344.40;138.48;;;;;;;;;;5118738;28;20023;-73
2022/01/21 03:19:54;;;;;;;289.20;122.05;;;;;;;;;;5117225;28;20102;-76
2022/01/21 03:22:22;;;;;;;309.15;120.60;;;;;;;;;;5117403;28;20038;-71
2022/01/21 03:24:48;;;;;;;242.50;98.05;;;;;;;;;;5118194;28;20177;-73
2022/01/21 03:27:16;;;;;;;345.92;132.25;;;;;;;;;;5117919;28;20024;-72
2022/01/21 03:29:44;;;;;;;347.35;133.13;;;;;;;;;;5118123;28;20020;-73
2022/01/21 03:32:12;;;;;;;384.15;154.50;;;;;;;;;;5118192;28;20423;-72
2022/01/21 03:34:40;;;;;;;482.15;232.45;;;;;;;;;;5118045;28;20028;-71
2022/01/21 03:37:07;;;;;;;425.67;228.30;;;;;;;;;;5118048;28;20376;-70
2022/01/21 03:39:35;;;;;;;374.63;172.90;;;;;;;;;;5118040;28;20028;-70
2022/01/21 03:42:02;;;;;;;258.42;110.65;;;;;;;;;;5118089;28;20047;-75
2022/01/21 03:44:30;;;;;;;246.20;95.72;;;;;;;;;;5117774;28;20094;-74
2022/01/21 03:46:57;;;;;;;242.32;100.63;;;;;;;;;;5117725;28;20281;-70
2022/01/21 03:49:27;;;;;;;276.48;116.70;;;;;;;;;;5117736;28;20023;-75
2022/01/21 03:51:55;;;;;;;226.90;85.68;;;;;;;;;;5128455;27;20393;-69
2022/01/21 03:54:23;;;;;;;215.68;80.35;;;;;;;;;;5138181;27;20027;-70
2022/01/21 03:56:50;;;;;;;211.75;77.70;;;;;;;;;;5138105;27;20067;-71
2022/01/21 03:59:18;;;;;;;247.32;94.18;;;;;;;;;;5137983;27;20033;-71
2022/01/21 04:01:46;;;;;;;264.58;103.80;;;;;;;;;;5138159;27;20098;-71
2022/01/21 04:04:13;;;;;;;272.92;102.38;;;;;;;;;;5136715;27;20027;-72
2022/01/21 04:06:41;;;;;;;238.80;93.95;;;;;;;;;;5138029;27;20420;-71
2022/01/21 04:09:09;;;;;;;179.95;79.28;;;;;;;;;;5137795;27;20100;-71
2022/01/21 04:11:36;;;;;;;159.38;62.03;;;;;;;;;;5137648;27;20476;-70
2022/01/21 04:14:04;;;;;;;174.80;64.75;;;;;;;;;;5137707;27;20487;-71
2022/01/21 04:16:31;;;;;;;151.18;55.35;;;;;;;;;;5137442;27;20068;-70
2022/01/21 04:18:59;;;;;;;141.57;50.58;;;;;;;;;;5136112;27;20418;-71
2022/01/21 04:21:27;;;;;;;131.68;53.00;;;;;;;;;;5137327;27;20098;-71
2022/01/21 04:23:53;;;;;;;191.13;99.97;;;;;;;;;;5136956;27;20047;-72
2022/01/21 04:26:21;;;;;;;136.35;51.67;;;;;;;;;;5135680;27;20035;-73
2022/01/21 04:28:49;;;;;;;175.68;66.45;;;;;;;;;;5137319;27;20020;-70
2022/01/21 04:31:16;;;;;;;151.20;66.60;;;;;;;;;;5137080;27;20011;-70
2022/01/21 04:33:44;;;;;;;140.18;60.60;;;;;;;;;;5123897;27;20015;-74
2022/01/21 04:36:11;;;;;;;154.98;64.15;;;;;;;;;;5115569;28;20055;-74
2022/01/21 04:38:40;;;;;;;189.13;69.30;;;;;;;;;;5115314;28;20028;-74
2022/01/21 04:41:34;;;;;;;174.38;73.25;;;;;;;;;;5116168;28;20424;-73
2022/01/21 04:47:17;;;;;;;216.10;94.85;;;;;;;;;;5116332;28;20134;-74
2022/01/21 04:49:41;;;;;;;245.73;111.38;;;;;;;;;;5093873;28;20188;-79
2022/01/21 04:52:09;;;;;;;223.88;91.60;;;;;;;;;;5094191;28;20067;-79
2022/01/21 04:54:37;;;;;;;210.13;90.45;;;;;;;;;;5080131;28;20412;-79
2022/01/21 04:57:06;;;;;;;214.65;87.55;;;;;;;;;;5076865;28;20054;-79
2022/01/21 04:59:34;;;;;;;224.38;92.00;;;;;;;;;;5093641;28;20032;-76
2022/01/21 05:02:01;;;;;;;253.68;100.90;;;;;;;;;;5093436;28;20163;-80
2022/01/21 05:04:29;;;;;;;227.20;91.25;;;;;;;;;;5076398;28;20032;-70
2022/01/21 05:06:56;;;;;;;216.13;83.38;;;;;;;;;;5093648;28;20055;-77
2022/01/21 05:09:30;;;;;;;190.82;76.88;;;;;;;;;;5093363;28;20107;-82
2022/01/21 05:11:59;;;;;;;149.48;60.42;;;;;;;;;;5094676;28;20020;-81
2022/01/21 05:17:15;;;;;;;169.63;68.70;;;;;;;;;;5093860;28;20085;-82
2022/01/21 05:19:43;;;;;;;183.60;77.40;;;;;;;;;;5078883;28;20031;-83
2022/01/21 05:22:10;;;;;;;195.82;85.40;;;;;;;;;;5116374;28;20047;-83
2022/01/21 05:24:37;;;;;;;185.32;83.68;;;;;;;;;;5114957;28;20051;-83
2022/01/21 05:27:03;;;;;;;177.55;78.00;;;;;;;;;;5115842;28;20022;-82
2022/01/21 05:29:32;;;;;;;185.95;80.20;;;;;;;;;;5116257;28;20091;-83
2022/01/21 05:32:00;;;;;;;178.88;74.43;;;;;;;;;;5116322;28;20019;-82
2022/01/21 05:34:28;;;;;;;159.70;73.55;;;;;;;;;;5115209;28;20020;-81
2022/01/21 05:36:56;;;;;;;171.55;73.20;;;;;;;;;;5116574;28;20026;-84
2022/01/21 05:39:24;;;;;;;171.30;73.85;;;;;;;;;;5116143;28;20065;-82
2022/01/21 05:41:53;;;;;;;198.30;89.75;;;;;;;;;;5116106;28;20041;-83
2022/01/21 05:46:59;;;;;;;230.63;105.68;;;;;;;;;;5093880;28;20146;-77
2022/01/21 05:49:28;;;;;;;230.45;106.65;;;;;;;;;;5076830;28;20021;-77
2022/01/21 05:52:03;;;;;;;262.02;114.93;;;;;;;;;;5093563;28;20032;-78
2022/01/21 05:54:32;;;;;;;269.20;111.65;;;;;;;;;;5094016;28;20419;-78
2022/01/21 05:57:01;;;;;;;272.88;105.93;;;;;;;;;;5077180;28;20043;-78
2022/01/21 05:59:29;;;;;;;267.92;109.45;;;;;;;;;;5076815;28;20424;-79
2022/01/21 06:01:56;;;;;;;263.75;107.82;;;;;;;;;;5076649;28;20074;-77
2022/01/21 06:04:24;;;;;;;238.23;100.35;;;;;;;;;;5076756;28;20048;-79
2022/01/21 06:06:52;;;;;;;202.30;86.85;;;;;;;;;;5077253;28;20035;-79
2022/01/21 06:09:19;;;;;;;207.27;86.00;;;;;;;;;;5097320;28;20051;-79
2022/01/21 06:11:47;;;;;;;203.43;87.68;;;;;;;;;;5097760;28;20109;-79
2022/01/21 06:14:17;;;;;;;198.07;87.07;;;;;;;;;;5097510;28;20028;-79
2022/01/21 06:16:45;;;;;;;211.20;88.93;;;;;;;;;;5097558;28;20059;-78
2022/01/21 06:19:13;;;;;;;181.60;83.50;;;;;;;;;;5077775;28;20081;-79
2022/01/21 06:21:44;;;;;;;200.20;88.93;;;;;;;;;;5112744;28;20352;-78
2022/01/21 06:24:10;;;;;;;192.40;88.65;;;;;;;;;;5096907;28;20577;-78
2022/01/21 06:26:37;;;;;;;202.80;94.00;;;;;;;;;;5096530;28;20040;-79
2022/01/21 06:29:05;;;;;;;201.30;93.68;;;;;;;;;;5079206;28;20059;-78
2022/01/21 06:31:33;;;;;;;210.57;93.80;;;;;;;;;;5079591;28;20024;-76
2022/01/21 06:34:00;;;;;;;218.05;101.07;;;;;;;;;;5102269;28;20040;-76
2022/01/21 06:36:28;;;;;;;221.98;107.25;;;;;;;;;;5117738;28;20023;-78
2022/01/21 06:38:56;;;;;;;287.25;135.82;;;;;;;;;;5119259;28;20022;-78
2022/01/21 06:41:24;;;;;;;258.63;123.45;;;;;;;;;;5118787;28;20027;-74
2022/01/21 06:43:51;;;;;;;262.52;128.38;;;;;;;;;;5117591;28;20035;-75
2022/01/21 06:46:19;;;;;;;284.67;135.88;;;;;;;;;;5118733;28;20480;-74
2022/01/21 06:48:46;;;;;;;271.17;131.00;;;;;;;;;;5118686;28;20434;-74
2022/01/21 06:51:14;;;;;;;269.25;128.65;;;;;;;;;;5118099;28;20408;-74
2022/01/21 06:53:42;;;;;;;268.75;131.73;;;;;;;;;;5118735;28;20023;-73
2022/01/21 06:56:10;;;;;;;273.13;134.57;;;;;;;;;;5118617;28;20027;-74
2022/01/21 06:58:37;;;;;;;263.63;127.78;;;;;;;;;;5117329;28;20080;-72
2022/01/21 07:01:05;;;;;;;243.23;119.55;;;;;;;;;;5118439;28;20081;-72
2022/01/21 07:03:32;;;;;;;240.65;114.28;;;;;;;;;;5117133;28;20036;-72
2022/01/21 07:06:00;;;;;;;228.95;109.93;;;;;;;;;;5119446;28;20058;-71
2022/01/21 07:08:27;;;;;;;210.43;98.97;;;;;;;;;;5118608;28;20104;-71
2022/01/21 07:10:55;;;;;;;212.98;100.93;;;;;;;;;;5119016;28;20094;-71
2022/01/21 07:13:23;;;;;;;198.75;99.97;;;;;;;;;;5117165;28;20364;-72
2022/01/21 07:15:50;;;;;;;208.05;103.80;;;;;;;;;;5118270;28;20059;-70
2022/01/21 07:18:18;;;;;;;243.15;114.25;;;;;;;;;;5117861;28;20024;-71
2022/01/21 07:20:45;;;;;;;212.60;98.53;;;;;;;;;;5112116;28;20063;-71
2022/01/21 07:23:13;;;;;;;234.18;107.60;;;;;;;;;;5096562;28;20035;-71
2022/01/21 07:25:41;;;;;;;180.32;83.85;;;;;;;;;;5097303;28;20048;-71
2022/01/21 07:28:09;;;;;;;179.20;83.93;;;;;;;;;;5096295;28;20027;-72
2022/01/21 07:30:36;;;;;;;165.73;75.88;;;;;;;;;;5096499;28;20424;-72
2022/01/21 07:33:03;;;;;;;156.38;71.88;;;;;;;;;;5097556;28;20051;-73
2022/01/21 07:35:31;;;;;;;146.20;64.13;;;;;;;;;;5097459;28;20060;-76
2022/01/21 07:37:59;;;;;;;131.13;59.00;;;;;;;;;;5096076;28;20123;-72
2022/01/21 07:40:27;;;;;;;110.97;51.88;;;;;;;;;;5097391;28;20353;-73
2022/01/21 07:42:55;;;;;;;101.03;45.00;;;;;;;;;;5097339;28;20048;-73
2022/01/21 07:45:22;;;;;;;100.45;42.63;;;;;;;;;;5098543;28;20131;-73
2022/01/21 07:47:50;;;;;;;80.63;35.90;;;;;;;;;;5096084;28;20017;-70
2022/01/21 07:50:18;;;;;;;89.68;39.50;;;;;;;;;;5096122;28;20103;-71
2022/01/21 07:52:49;;;;;;;89.65;37.83;;;;;;;;;;5099012;28;20028;-70
2022/01/21 07:55:17;;;;;;;81.28;35.72;;;;;;;;;;5102165;28;20035;-71
2022/01/21 07:57:45;;;;;;;77.95;32.47;;;;;;;;;;5097289;28;20439;-74
2022/01/21 08:00:13;;;;;;;77.82;33.33;;;;;;;;;;5096169;28;20063;-73
2022/01/21 08:02:41;;;;;;;79.18;32.08;;;;;;;;;;5095817;28;20020;-70
2022/01/21 08:05:09;;;;;;;61.30;29.75;;;;;;;;;;5096652;28;20020;-70
2022/01/21 08:07:37;;;;;;;69.10;32.22;;;;;;;;;;5096822;28;20049;-70
2022/01/21 08:10:05;;;;;;;64.20;29.08;;;;;;;;;;5096496;28;20020;-70
2022/01/21 08:12:32;;;;;;;57.65;29.10;;;;;;;;;;5101327;28;20054;-73
2022/01/21 08:15:00;;;;;;;69.53;33.60;;;;;;;;;;5106564;27;20121;-73
2022/01/21 08:17:31;;;;;;;64.47;30.23;;;;;;;;;;5109832;28;20032;-72
2022/01/21 08:19:59;;;;;;;72.43;32.65;;;;;;;;;;5104591;28;20020;-73
2022/01/21 08:22:27;;;;;;;65.60;29.58;;;;;;;;;;5108357;28;20114;-73
2022/01/21 08:24:53;;;;;;;65.20;31.25;;;;;;;;;;5104095;27;20048;-70
2022/01/21 08:27:19;;;;;;;72.00;29.38;;;;;;;;;;5106871;28;20357;-72
2022/01/21 08:29:47;;;;;;;64.40;28.13;;;;;;;;;;5105170;28;20086;-73
2022/01/21 08:32:17;;;;;;;49.83;23.10;;;;;;;;;;5102022;28;20039;-75
2022/01/21 08:34:45;;;;;;;52.97;24.98;;;;;;;;;;5106844;28;20024;-68
2022/01/21 08:37:13;;;;;;;54.58;24.75;;;;;;;;;;5103943;28;20416;-71
2022/01/21 08:39:44;;;;;;;56.25;25.58;;;;;;;;;;5104745;28;20024;-69
2022/01/21 08:42:15;;;;;;;51.83;24.20;;;;;;;;;;5106552;27;20043;-69
2022/01/21 08:44:43;;;;;;;47.17;22.38;;;;;;;;;;5106440;28;20023;-72
2022/01/21 08:47:11;;;;;;;45.78;22.65;;;;;;;;;;5106478;28;20043;-70
2022/01/21 08:49:39;;;;;;;57.95;26.92;;;;;;;;;;5117245;28;20027;-71
2022/01/21 08:52:06;;;;;;;51.05;24.90;;;;;;;;;;5106853;28;20020;-70
2022/01/21 08:54:34;;;;;;;53.15;25.38;;;;;;;;;;5098926;28;20048;-71
2022/01/21 08:57:02;;;;;;;44.90;20.92;;;;;;;;;;5097769;28;20039;-72
2022/01/21 08:59:31;;;;;;;41.58;19.67;;;;;;;;;;5097990;28;20028;-72
2022/01/21 09:01:59;;;;;;;42.08;20.35;;;;;;;;;;5099086;28;20017;-69
2022/01/21 09:04:27;;;;;;;55.17;21.58;;;;;;;;;;5097118;28;20024;-72
2022/01/21 09:06:55;;;;;;;43.22;22.23;;;;;;;;;;5098129;28;20016;-72
2022/01/21 09:09:24;;;;;;;71.28;30.95;;;;;;;;;;5096984;28;20091;-71
2022/01/21 09:11:59;;;;;;;40.65;18.40;;;;;;;;;;5095373;28;20054;-68
2022/01/21 09:14:28;;;;;;;42.70;18.20;;;;;;;;;;5095619;28;20298;-68
2022/01/21 09:16:57;;;;;;;41.80;17.90;;;;;;;;;;5094609;28;20020;-73
2022/01/21 09:19:25;;;;;;;46.50;19.40;;;;;;;;;;5094106;28;20075;-70
2022/01/21 09:21:55;;;;;;;41.92;19.75;;;;;;;;;;5094447;28;20016;-70
2022/01/21 09:24:22;;;;;;;71.07;23.77;;;;;;;;;;5095333;28;20040;-70
2022/01/21 09:26:49;;;;;;;43.03;18.65;;;;;;;;;;5095559;28;20024;-71
2022/01/21 09:29:17;;;;;;;47.05;19.02;;;;;;;;;;5096472;28;20020;-73
2022/01/21 09:31:45;;;;;;;37.40;19.45;;;;;;;;;;5096313;28;20107;-74
2022/01/21 09:34:12;;;;;;;42.15;19.25;;;;;;;;;;5095741;28;20077;-72
2022/01/21 09:36:42;;;;;;;43.03;18.98;;;;;;;;;;5096624;28;20027;-75
2022/01/21 09:39:09;;;;;;;36.05;18.05;;;;;;;;;;5095616;28;20032;-75
2022/01/21 09:41:36;;;;;;;34.17;17.58;;;;;;;;;;5098666;28;20032;-73
2022/01/21 09:44:05;;;;;;;41.58;18.20;;;;;;;;;;5100898;28;20047;-74
2022/01/21 09:46:35;;;;;;;38.83;17.42;;;;;;;;;;5100237;28;20031;-69
2022/01/21 09:49:19;;;;;;;42.13;19.27;;;;;;;;;;5099592;28;20020;-74
2022/01/21 09:51:49;;;;;;;40.40;18.83;;;;;;;;;;5099945;28;20048;-73
2022/01/21 09:54:17;;;;;;;43.38;21.00;;;;;;;;;;5100426;28;20020;-82
2022/01/21 09:56:46;;;;;;;45.50;23.67;;;;;;;;;;5118836;28;20035;-81
2022/01/21 09:59:18;;;;;;;41.05;19.85;;;;;;;;;;5118418;28;20027;-76
2022/01/21 10:01:49;;;;;;;49.90;23.45;;;;;;;;;;5119068;28;20024;-78
2022/01/21 10:04:18;;;;;;;56.20;25.13;;;;;;;;;;5119671;28;20065;-78
2022/01/21 10:06:48;;;;;;;58.83;30.25;;;;;;;;;;5102062;28;20019;-74
2022/01/21 10:09:16;;;;;;;71.78;32.72;;;;;;;;;;5119692;28;20030;-72
2022/01/21 10:11:48;;;;;;;65.80;32.47;;;;;;;;;;5118591;28;20019;-78
2022/01/21 10:14:20;;;;;;;71.28;33.72;;;;;;;;;;5118805;28;20455;-79
2022/01/21 10:16:48;;;;;;;68.75;32.13;;;;;;;;;;5119201;28;20027;-76
2022/01/21 10:19:35;;;;;;;58.40;28.33;;;;;;;;;;5118445;28;20303;-76
2022/01/21 10:22:08;;;;;;;57.95;28.17;;;;;;;;;;5118412;28;20039;-76
2022/01/21 10:24:36;;;;;;;57.83;28.42;;;;;;;;;;5118614;28;20063;-76
2022/01/21 10:27:02;;;;;;;77.50;36.72;;;;;;;;;;5118731;28;20044;-77
2022/01/21 10:29:40;;;;;;;76.45;39.58;;;;;;;;;;5136297;27;20062;-75
2022/01/21 10:32:10;;;;;;;89.03;41.55;;;;;;;;;;5139286;27;20190;-77
2022/01/21 10:34:43;;;;;;;92.68;40.97;;;;;;;;;;5139020;27;20027;-76
2022/01/21 10:37:24;;;;;;;79.75;39.55;;;;;;;;;;5139133;27;20396;-72
2022/01/21 10:40:23;;;;;;;84.70;40.58;;;;;;;;;;5139820;27;20031;-77
2022/01/21 10:42:50;;;;;;;81.90;41.03;;;;;;;;;;5078146;28;20032;-76
2022/01/21 10:45:19;;;;;;;89.38;41.28;;;;;;;;;;5077858;28;20480;-74
2022/01/21 10:47:50;;;;;;;81.28;37.28;;;;;;;;;;5045727;28;20040;-79
2022/01/21 10:50:23;;;;;;;87.60;39.22;;;;;;;;;;5040561;28;20021;-74
2022/01/21 10:52:52;;;;;;;83.70;39.10;;;;;;;;;;5039325;28;20079;-73
2022/01/21 10:55:33;;;;;;;90.35;40.08;;;;;;;;;;5040237;28;20163;-73
2022/01/21 10:58:20;;;;;;;77.35;40.30;;;;;;;;;;5056694;28;20029;-78
2022/01/21 11:01:13;;;;;;;83.22;39.60;;;;;;;;;;5040263;28;20479;-77
2022/01/21 11:04:01;;;;;;;107.70;47.63;;;;;;;;;;5056576;28;20029;-79
2022/01/21 11:06:38;;;;;;;170.82;63.20;;;;;;;;;;5056883;28;20075;-82
2022/01/21 11:09:12;;;;;;;95.05;42.22;;;;;;;;;;5040850;28;20027;-79
2022/01/21 11:11:40;;;;;;;149.65;64.53;;;;;;;;;;5042700;28;20060;-77
2022/01/21 11:14:15;;;;;;;91.53;40.85;;;;;;;;;;5039833;28;20114;-79
2022/01/21 11:16:45;;;;;;;70.43;33.50;;;;;;;;;;5056135;28;20433;-77
2022/01/21 11:19:16;;;;;;;69.93;34.45;;;;;;;;;;5108702;28;20305;-77
2022/01/21 11:21:56;;;;;;;61.80;31.42;;;;;;;;;;5117650;28;20480;-79
2022/01/21 11:24:24;;;;;;;71.38;29.70;;;;;;;;;;5118446;28;20524;-78
2022/01/21 11:29:27;;;;;;;65.70;29.20;;;;;;;;;;5056483;22;20058;-78
2022/01/21 11:31:55;;;;;;;77.95;34.85;;;;;;;;;;4998545;28;20022;-78
2022/01/21 11:34:22;;;;;;;84.53;40.80;;;;;;;;;;4998312;28;20031;-77
2022/01/21 11:36:50;;;;;;;145.77;64.90;;;;;;;;;;4998291;28;20335;-77
2022/01/21 11:39:21;;;;;;;90.68;41.53;;;;;;;;;;4998249;28;20023;-76
2022/01/21 11:41:51;;;;;;;82.30;35.25;;;;;;;;;;4997550;28;20415;-79
2022/01/21 11:44:22;;;;;;;71.15;33.45;;;;;;;;;;4996890;28;20477;-76
2022/01/21 11:47:16;;;;;;;70.57;34.67;;;;;;;;;;4997042;28;20088;-76
2022/01/21 11:49:55;;;;;;;72.57;35.97;;;;;;;;;;4998055;28;20018;-76
2022/01/21 11:52:23;;;;;;;78.78;35.30;;;;;;;;;;4997026;28;20022;-76
2022/01/21 11:54:53;;;;;;;76.22;34.80;;;;;;;;;;4996938;28;20029;-76
2022/01/21 11:57:31;;;;;;;74.75;34.05;;;;;;;;;;4998140;28;20026;-75
2022/01/21 12:00:07;;;;;;;71.50;32.72;;;;;;;;;;4996957;28;20026;-76
2022/01/21 12:02:36;;;;;;;67.45;31.05;;;;;;;;;;4997969;28;20022;-77
2022/01/21 12:05:10;;;;;;;61.50;29.52;;;;;;;;;;4995592;28;20030;-76
2022/01/21 12:07:44;;;;;;;70.93;31.08;;;;;;;;;;4997917;28;20365;-78
2022/01/21 12:10:26;;;;;;;75.10;31.40;;;;;;;;;;5000564;28;20363;-77
2022/01/21 12:13:13;;;;;;;78.95;31.92;;;;;;;;;;5533684;23;20058;-77
2022/01/21 12:16:06;;;;;;;79.18;36.08;;;;;;;;;;5008374;28;20031;-80
2022/01/21 12:21:06;;;;;;;90.93;38.30;;;;;;;;;;5009669;28;20018;-79
2022/01/21 12:23:48;;;;;;;88.22;40.88;;;;;;;;;;5013199;28;20025;-79
2022/01/21 12:26:19;;;;;;;93.85;42.90;;;;;;;;;;5002823;28;20022;-78
2022/01/21 12:28:58;;;;;;;99.32;45.83;;;;;;;;;;4996598;28;20025;-76
2022/01/21 12:31:51;;;;;;;101.70;47.58;;;;;;;;;;4999480;28;20030;-78
2022/01/21 12:34:18;;;;;;;96.68;45.42;;;;;;;;;;4996374;28;20051;-77
2022/01/21 12:37:12;;;;;;;99.13;44.88;;;;;;;;;;4995729;28;20053;-76
2022/01/21 12:39:46;;;;;;;103.78;46.58;;;;;;;;;;4996905;28;20030;-76
2022/01/21 12:42:27;;;;;;;98.22;44.72;;;;;;;;;;4997259;28;20324;-76
2022/01/21 12:45:13;;;;;;;95.63;44.80;;;;;;;;;;4996352;28;20371;-78
2022/01/21 12:47:43;;;;;;;99.03;44.53;;;;;;;;;;4997323;28;20022;-76
2022/01/21 12:50:45;;;;;;;91.07;42.08;;;;;;;;;;4997270;28;20347;-76
2022/01/21 12:53:24;;;;;;;91.38;42.78;;;;;;;;;;4996479;28;20033;-77
2022/01/21 12:55:55;;;;;;;90.85;44.55;;;;;;;;;;4996586;28;20383;-76
2022/01/21 12:58:25;;;;;;;100.47;49.30;;;;;;;;;;4996683;28;20099;-76
2022/01/21 13:01:05;;;;;;;242.10;110.03;;;;;;;;;;4995508;28;20050;-76
2022/01/21 13:03:49;;;;;;;264.27;114.78;;;;;;;;;;4996736;28;20026;-77
2022/01/21 13:06:28;;;;;;;194.20;98.72;;;;;;;;;;4996383;28;20054;-77
2022/01/21 13:09:08;;;;;;;143.20;75.15;;;;;;;;;;4996807;28;20019;-77
2022/01/21 13:11:40;;;;;;;144.98;64.38;;;;;;;;;;4996819;28;20339;-77
2022/01/21 13:17:11;;;;;;;122.60;54.58;;;;;;;;;;4996330;28;20509;-77
2022/01/21 13:19:45;;;;;;;113.38;52.92;;;;;;;;;;4996626;28;20082;-76
2022/01/21 13:22:22;;;;;;;111.30;56.08;;;;;;;;;;4995507;28;20034;-77
2022/01/21 13:25:09;;;;;;;138.95;66.15;;;;;;;;;;4995371;28;20026;-77
2022/01/21 13:27:45;;;;;;;208.52;97.07;;;;;;;;;;4996460;28;20129;-77
2022/01/21 13:30:14;;;;;;;252.32;111.65;;;;;;;;;;4996653;28;20101;-77
2022/01/21 13:32:46;;;;;;;426.45;196.27;;;;;;;;;;4996116;28;20730;-79
2022/01/21 13:35:25;;;;;;;323.98;136.82;;;;;;;;;;5019137;28;20036;-79
2022/01/21 13:38:10;;;;;;;224.50;104.68;;;;;;;;;;5019610;28;20072;-76
2022/01/21 13:40:40;;;;;;;136.82;61.28;;;;;;;;;;5014198;28;20041;-77
2022/01/21 13:43:23;;;;;;;127.85;57.08;;;;;;;;;;5014036;28;20117;-76
2022/01/21 13:46:10;;;;;;;124.50;54.28;;;;;;;;;;5019724;28;20050;-78
2022/01/21 13:48:38;;;;;;;124.90;52.67;;;;;;;;;;5015915;28;20473;-77
2022/01/21 13:51:07;;;;;;;125.65;52.25;;;;;;;;;;5014070;28;20041;-77
2022/01/21 13:53:37;;;;;;;110.38;49.17;;;;;;;;;;5014320;28;20084;-78
2022/01/21 13:56:08;;;;;;;110.07;49.92;;;;;;;;;;5014257;28;20118;-78
2022/01/21 13:58:39;;;;;;;114.28;49.15;;;;;;;;;;5014527;28;20048;-77
2022/01/21 14:01:21;;;;;;;110.45;48.65;;;;;;;;;;5014578;28;20026;-77
2022/01/21 14:03:49;;;;;;;104.45;46.08;;;;;;;;;;5014686;28;20116;-78
2022/01/21 14:06:19;;;;;;;100.00;47.72;;;;;;;;;;5014162;28;20107;-78
2022/01/21 14:08:48;;;;;;;103.15;47.65;;;;;;;;;;5014774;28;20035;-78
2022/01/21 14:11:24;;;;;;;105.07;47.75;;;;;;;;;;5014788;28;20108;-78
2022/01/21 14:14:00;;;;;;;111.80;49.85;;;;;;;;;;4997140;28;20037;-78
2022/01/21 14:16:37;;;;;;;111.95;49.63;;;;;;;;;;4996842;28;20419;-76
2022/01/21 14:19:05;;;;;;;100.75;48.15;;;;;;;;;;4996603;28;20042;-76
2022/01/21 14:21:32;;;;;;;117.18;50.42;;;;;;;;;;4996849;28;20109;-77
2022/01/21 14:24:13;;;;;;;108.43;51.70;;;;;;;;;;4996974;28;20031;-77
2022/01/21 14:26:50;;;;;;;106.68;50.63;;;;;;;;;;4996803;28;20023;-77
2022/01/21 14:29:31;;;;;;;113.75;49.63;;;;;;;;;;5017132;28;20358;-77
2022/01/21 14:32:02;;;;;;;109.40;49.65;;;;;;;;;;5018053;28;20099;-77
2022/01/21 14:34:31;;;;;;;111.10;49.28;;;;;;;;;;5017680;28;20026;-77
2022/01/21 14:37:08;;;;;;;121.93;53.03;;;;;;;;;;5018061;28;20378;-77
2022/01/21 14:39:37;;;;;;;115.70;51.53;;;;;;;;;;5018028;28;20033;-77
2022/01/21 14:42:05;;;;;;;125.32;54.50;;;;;;;;;;5017986;28;20115;-78
2022/01/21 14:44:44;;;;;;;115.78;52.30;;;;;;;;;;5017913;28;20498;-77
2022/01/21 14:47:22;;;;;;;126.13;56.22;;;;;;;;;;5017941;28;20026;-77
2022/01/21 14:50:05;;;;;;;126.10;52.78;;;;;;;;;;5017772;28;20038;-78
2022/01/21 14:52:44;;;;;;;118.15;53.65;;;;;;;;;;5017619;28;20026;-77
2022/01/21 14:55:19;;;;;;;117.72;53.40;;;;;;;;;;5017672;28;20343;-78
2022/01/21 14:57:56;;;;;;;121.75;52.38;;;;;;;;;;5017574;28;20032;-77
2022/01/21 15:00:25;;;;;;;114.30;52.25;;;;;;;;;;5008245;28;20069;-77
2022/01/21 15:03:04;;;;;;;112.50;52.33;;;;;;;;;;4999047;28;20145;-77
2022/01/21 15:05:33;;;;;;;109.68;50.92;;;;;;;;;;4999344;28;20038;-78
2022/01/21 15:08:01;;;;;;;113.75;51.97;;;;;;;;;;4998780;28;20113;-77
2022/01/21 15:10:35;;;;;;;103.55;49.25;;;;;;;;;;4999344;28;20477;-77
2022/01/21 15:16:12;;;;;;;107.10;47.92;;;;;;;;;;4999270;28;20531;-77
2022/01/21 15:18:39;;;;;;;112.75;48.83;;;;;;;;;;4999264;28;20100;-77
2022/01/21 15:21:14;;;;;;;105.05;44.20;;;;;;;;;;4999070;28;20077;-76
2022/01/21 15:23:42;;;;;;;104.90;47.30;;;;;;;;;;4999494;28;20030;-76
2022/01/21 15:26:10;;;;;;;99.57;47.55;;;;;;;;;;4999418;28;20088;-76
2022/01/21 15:28:37;;;;;;;105.32;48.78;;;;;;;;;;4998260;28;20086;-77